Time,TemperatureF,DewpointF,PressureIn,WindDirection,WindDirectionDegrees,WindSpeedMPH,WindSpeedGustMPH,Humidity,HourlyPrecipIn,Conditions,Clouds,dailyrainin,SoftwareType,DateUTC
2013-05-14 00:13:00,46.7,41.0,30.09,WNW,284,3.0,9.0,80,0.00,,,0.00,weatherlink.com 1.10,2013-05-14 07:13:00,
2013-05-14 00:28:00,46.4,40.0,30.09,WNW,302,3.0,7.0,78,0.00,,,0.00,weatherlink.com 1.10,2013-05-14 07:28:00,
2013-05-14 00:44:00,46.0,40.0,30.09,WNW,287,2.0,7.0,79,0.00,,,0.00,weatherlink.com 1.10,2013-05-14 07:44:00,
2013-05-14 00:59:00,45.5,40.0,30.10,WSW,245,1.0,5.0,82,0.00,,,0.00,weatherlink.com 1.10,2013-05-14 07:59:00,
2013-05-14 01:14:00,45.2,40.0,30.09,WNW,282,3.0,5.0,82,0.00,,,0.00,weatherlink.com 1.10,2013-05-14 08:14:00,
2013-05-14 01:29:00,45.8,40.0,30.09,WNW,282,11.0,11.0,79,0.00,,,0.00,weatherlink.com 1.10,2013-05-14 08:29:00,
2013-05-14 01:44:00,45.7,39.0,30.10,WNW,288,3.0,10.0,78,0.00,,,0.00,weatherlink.com 1.10,2013-05-14 08:44:00,
2013-05-14 01:59:00,45.7,40.0,30.11,West,276,6.0,8.0,79,0.00,,,0.00,weatherlink.com 1.10,2013-05-14 08:59:00,
2013-05-14 02:14:00,44.7,40.0,30.10,WNW,294,7.0,8.0,82,0.00,,,0.00,weatherlink.com 1.10,2013-05-14 09:14:00,
2013-05-14 02:29:00,44.9,39.0,30.10,West,271,6.0,11.0,80,0.00,,,0.00,weatherlink.com 1.10,2013-05-14 09:29:00,
2013-05-14 02:44:00,44.6,39.0,30.10,WNW,295,2.0,8.0,82,0.00,,,0.00,weatherlink.com 1.10,2013-05-14 09:44:00,
2013-05-14 02:59:00,44.2,39.0,30.12,NW,321,2.0,2.0,83,0.00,,,0.00,weatherlink.com 1.10,2013-05-14 09:59:00,
2013-05-14 03:14:00,43.8,39.0,30.10,West,264,3.0,8.0,84,0.00,,,0.00,weatherlink.com 1.10,2013-05-14 10:14:00,
2013-05-14 03:29:00,43.9,39.0,30.12,WSW,256,1.0,4.0,83,0.00,,,0.00,weatherlink.com 1.10,2013-05-14 10:29:00,
2013-05-14 03:44:00,43.5,39.0,30.12,West,276,0.0,3.0,84,0.00,,,0.00,weatherlink.com 1.10,2013-05-14 10:44:00,
2013-05-14 03:59:00,42.7,39.0,30.11,WSW,257,3.0,5.0,85,0.00,,,0.00,weatherlink.com 1.10,2013-05-14 10:59:00,
2013-05-14 04:14:00,42.7,39.0,30.11,West,277,2.0,5.0,85,0.00,,,0.00,weatherlink.com 1.10,2013-05-14 11:14:00,
2013-05-14 04:29:00,43.1,38.0,30.12,West,280,4.0,7.0,83,0.00,,,0.00,weatherlink.com 1.10,2013-05-14 11:29:00,
2013-05-14 04:44:00,42.4,39.0,30.12,West,269,1.0,3.0,86,0.00,,,0.00,weatherlink.com 1.10,2013-05-14 11:44:00,
2013-05-14 04:59:00,42.0,38.0,30.11,WNW,284,2.0,3.0,87,0.00,,,0.00,weatherlink.com 1.10,2013-05-14 11:59:00,
2013-05-14 05:14:00,42.6,38.0,30.12,NW,305,1.0,4.0,83,0.00,,,0.00,weatherlink.com 1.10,2013-05-14 12:14:00,
2013-05-14 05:29:00,42.6,38.0,30.12,West,262,0.0,1.0,85,0.00,,,0.00,weatherlink.com 1.10,2013-05-14 12:29:00,
2013-05-14 05:44:00,41.7,39.0,30.12,SSE,149,0.0,1.0,89,0.00,,,0.00,weatherlink.com 1.10,2013-05-14 12:44:00,
2013-05-14 05:59:00,41.5,39.0,30.12,NNW,342,1.0,2.0,89,0.00,,,0.00,weatherlink.com 1.10,2013-05-14 12:59:00,
2013-05-14 06:14:00,42.1,39.0,30.12,NW,325,0.0,2.0,89,0.00,,,0.00,weatherlink.com 1.10,2013-05-14 13:14:00,
2013-05-14 06:29:00,42.8,39.0,30.12,NW,304,2.0,5.0,85,0.00,,,0.00,weatherlink.com 1.10,2013-05-14 13:29:00,
2013-05-14 06:44:00,43.7,39.0,30.12,WNW,302,6.0,7.0,84,0.00,,,0.00,weatherlink.com 1.10,2013-05-14 13:44:00,
2013-05-14 06:59:00,43.8,39.0,30.12,NW,314,4.0,6.0,82,0.00,,,0.00,weatherlink.com 1.10,2013-05-14 13:59:00,
2013-05-14 07:14:00,44.1,39.0,30.11,NW,304,4.0,7.0,81,0.00,,,0.00,weatherlink.com 1.10,2013-05-14 14:14:00,
2013-05-14 07:29:00,44.8,39.0,30.12,WNW,288,3.0,6.0,80,0.00,,,0.00,weatherlink.com 1.10,2013-05-14 14:29:00,
2013-05-14 07:44:00,46.0,39.0,30.12,WNW,295,1.0,6.0,76,0.00,,,0.00,weatherlink.com 1.10,2013-05-14 14:44:00,
2013-05-14 07:59:00,46.1,39.0,30.12,WNW,298,3.0,7.0,76,0.00,,,0.00,weatherlink.com 1.10,2013-05-14 14:59:00,
2013-05-14 08:14:00,46.6,39.0,30.12,WSW,246,1.0,5.0,75,0.00,,,0.00,weatherlink.com 1.10,2013-05-14 15:14:00,
2013-05-14 08:29:00,47.4,40.0,30.12,NNW,334,2.0,5.0,75,0.00,,,0.00,weatherlink.com 1.10,2013-05-14 15:29:00,
2013-05-14 08:44:00,47.9,40.0,30.12,North,352,0.0,5.0,74,0.00,,,0.00,weatherlink.com 1.10,2013-05-14 15:44:00,
2013-05-14 08:59:00,47.8,40.0,30.12,West,260,3.0,7.0,75,0.00,,,0.00,weatherlink.com 1.10,2013-05-14 15:59:00,
2013-05-14 09:15:00,47.5,40.0,30.12,WNW,296,4.0,7.0,75,0.00,,,0.00,weatherlink.com 1.10,2013-05-14 16:15:00,
2013-05-14 09:30:00,48.1,40.0,30.12,WNW,290,2.0,7.0,74,0.00,,,0.00,weatherlink.com 1.10,2013-05-14 16:30:00,
2013-05-14 09:45:00,48.6,41.0,30.12,WNW,302,1.0,7.0,75,0.00,,,0.00,weatherlink.com 1.10,2013-05-14 16:45:00,
2013-05-14 10:00:00,49.2,41.0,30.12,West,259,7.0,7.0,72,0.00,,,0.00,weatherlink.com 1.10,2013-05-14 17:00:00,
2013-05-14 10:15:00,49.6,39.0,30.12,West,266,3.0,7.0,67,0.00,,,0.00,weatherlink.com 1.10,2013-05-14 17:15:00,
2013-05-14 10:30:00,50.6,42.0,30.12,West,277,4.0,13.0,73,0.00,,,0.00,weatherlink.com 1.10,2013-05-14 17:30:00,
2013-05-14 10:45:00,50.0,39.0,30.12,NE,37,2.0,7.0,65,0.00,,,0.00,weatherlink.com 1.10,2013-05-14 17:45:00,
2013-05-14 11:00:00,51.0,40.0,30.12,WNW,295,5.0,9.0,67,0.00,,,0.00,weatherlink.com 1.10,2013-05-14 18:00:00,
2013-05-14 11:15:00,51.3,41.0,30.12,WNW,299,3.0,7.0,67,0.00,,,0.00,weatherlink.com 1.10,2013-05-14 18:15:00,
2013-05-14 11:30:00,51.7,40.0,30.11,WNW,293,3.0,9.0,65,0.00,,,0.00,weatherlink.com 1.10,2013-05-14 18:30:00,
2013-05-14 11:45:00,52.3,39.0,30.11,SE,135,1.0,11.0,62,0.00,,,0.00,weatherlink.com 1.10,2013-05-14 18:45:00,
2013-05-14 12:00:00,52.3,39.0,30.11,WSW,248,3.0,7.0,60,0.00,,,0.00,weatherlink.com 1.10,2013-05-14 19:00:00,
2013-05-14 12:15:00,53.0,41.0,30.10,NNE,16,3.0,9.0,65,0.00,,,0.00,weatherlink.com 1.10,2013-05-14 19:15:00,
2013-05-14 12:30:00,53.3,38.0,30.10,SW,225,1.0,8.0,56,0.00,,,0.00,weatherlink.com 1.10,2013-05-14 19:30:00,
2013-05-14 12:45:00,54.2,37.0,30.10,WSW,248,5.0,8.0,52,0.00,,,0.00,weatherlink.com 1.10,2013-05-14 19:45:00,
2013-05-14 13:00:00,54.2,39.0,30.09,NW,319,4.0,8.0,57,0.00,,,0.00,weatherlink.com 1.10,2013-05-14 20:00:00,
2013-05-14 13:15:00,54.6,38.0,30.09,WNW,295,7.0,11.0,54,0.00,,,0.00,weatherlink.com 1.10,2013-05-14 20:15:00,
2013-05-14 13:30:00,54.4,38.0,30.09,NNW,328,6.0,8.0,55,0.00,,,0.00,weatherlink.com 1.10,2013-05-14 20:30:00,
2013-05-14 13:45:00,55.7,38.0,30.09,North,359,7.0,12.0,52,0.00,,,0.00,weatherlink.com 1.10,2013-05-14 20:45:00,
2013-05-14 14:00:00,55.3,37.0,30.08,NW,319,2.0,13.0,51,0.00,,,0.00,weatherlink.com 1.10,2013-05-14 21:00:00,
2013-05-14 14:15:00,55.5,37.0,30.08,NNW,330,5.0,13.0,50,0.00,,,0.00,weatherlink.com 1.10,2013-05-14 21:15:00,
2013-05-14 14:30:00,55.5,36.0,30.08,NW,315,7.0,13.0,49,0.00,,,0.00,weatherlink.com 1.10,2013-05-14 21:30:00,
2013-05-14 14:45:00,55.8,39.0,30.07,NW,322,4.0,13.0,54,0.00,,,0.00,weatherlink.com 1.10,2013-05-14 21:45:00,
2013-05-14 15:00:00,55.9,38.0,30.07,NW,322,6.0,12.0,51,0.00,,,0.00,weatherlink.com 1.10,2013-05-14 22:00:00,
2013-05-14 15:15:00,56.3,37.0,30.07,WNW,290,4.0,13.0,49,0.00,,,0.00,weatherlink.com 1.10,2013-05-14 22:15:00,
2013-05-14 15:30:00,56.3,36.0,30.06,NNW,334,5.0,13.0,47,0.00,,,0.00,weatherlink.com 1.10,2013-05-14 22:30:00,
2013-05-14 15:45:00,56.7,38.0,30.06,WSW,246,6.0,11.0,49,0.00,,,0.00,weatherlink.com 1.10,2013-05-14 22:45:00,
2013-05-14 16:00:00,57.2,37.0,30.06,NNW,330,8.0,11.0,48,0.00,,,0.00,weatherlink.com 1.10,2013-05-14 23:00:00,
2013-05-14 16:15:00,57.1,37.0,30.06,NW,304,5.0,10.0,47,0.00,,,0.00,weatherlink.com 1.10,2013-05-14 23:15:00,
2013-05-14 16:30:00,57.4,37.0,30.06,North,11,5.0,11.0,46,0.00,,,0.00,weatherlink.com 1.10,2013-05-14 23:30:00,
2013-05-14 16:45:00,57.5,38.0,30.06,NNW,340,6.0,11.0,49,0.00,,,0.00,weatherlink.com 1.10,2013-05-14 23:45:00,
2013-05-14 17:00:00,57.3,40.0,30.05,WNW,295,8.0,10.0,53,0.00,,,0.00,weatherlink.com 1.10,2013-05-15 00:00:00,
2013-05-14 17:15:00,57.6,40.0,30.05,WNW,288,8.0,10.0,53,0.00,,,0.00,weatherlink.com 1.10,2013-05-15 00:15:00,
2013-05-14 17:30:00,57.7,38.0,30.06,NW,322,10.0,10.0,49,0.00,,,0.00,weatherlink.com 1.10,2013-05-15 00:30:00,
2013-05-14 17:45:00,56.1,38.0,30.05,West,274,4.0,8.0,51,0.00,,,0.00,weatherlink.com 1.10,2013-05-15 00:45:00,
2013-05-14 18:00:00,56.4,39.0,30.05,West,280,2.0,9.0,53,0.00,,,0.00,weatherlink.com 1.10,2013-05-15 01:00:00,
2013-05-14 18:15:00,56.2,40.0,30.05,West,273,2.0,9.0,56,0.00,,,0.00,weatherlink.com 1.10,2013-05-15 01:15:00,
2013-05-14 18:30:00,56.3,41.0,30.05,WNW,293,5.0,9.0,56,0.00,,,0.00,weatherlink.com 1.10,2013-05-15 01:30:00,
2013-05-14 18:45:00,55.0,40.0,30.05,WNW,287,3.0,7.0,57,0.00,,,0.00,weatherlink.com 1.10,2013-05-15 01:45:00,
2013-05-14 19:00:00,54.4,39.0,30.05,WNW,290,5.0,9.0,56,0.00,,,0.00,weatherlink.com 1.10,2013-05-15 02:00:00,
2013-05-14 19:15:00,55.3,41.0,30.05,WNW,290,3.0,8.0,58,0.00,,,0.00,weatherlink.com 1.10,2013-05-15 02:15:00,
2013-05-14 19:30:00,54.4,39.0,30.05,West,280,5.0,9.0,57,0.00,,,0.00,weatherlink.com 1.10,2013-05-15 02:30:00,
2013-05-14 19:45:00,53.2,39.0,30.06,WNW,297,3.0,6.0,60,0.00,,,0.00,weatherlink.com 1.10,2013-05-15 02:45:00,
2013-05-14 20:00:00,51.8,40.0,30.06,NW,304,1.0,3.0,65,0.00,,,0.00,weatherlink.com 1.10,2013-05-15 03:00:00,
2013-05-14 20:16:00,50.1,40.0,30.06,WNW,295,0.0,2.0,68,0.00,,,0.00,weatherlink.com 1.10,2013-05-15 03:16:00,
2013-05-14 20:31:00,48.1,39.0,30.07,ENE,67,0.0,1.0,70,0.00,,,0.00,weatherlink.com 1.10,2013-05-15 03:31:00,
2013-05-14 20:46:00,45.6,38.0,30.07,North,352,0.0,2.0,76,0.00,,,0.00,weatherlink.com 1.10,2013-05-15 03:46:00,
2013-05-14 21:01:00,43.1,38.0,30.07,North,350,0.0,1.0,82,0.00,,,0.00,weatherlink.com 1.10,2013-05-15 04:01:00,
2013-05-14 21:16:00,41.2,37.0,30.08,North,350,0.0,0.0,85,0.00,,,0.00,weatherlink.com 1.10,2013-05-15 04:16:00,
2013-05-14 21:31:00,40.1,37.0,30.08,North,352,0.0,1.0,89,0.00,,,0.00,weatherlink.com 1.10,2013-05-15 04:31:00,
2013-05-14 21:46:00,39.9,37.0,30.08,North,352,0.0,0.0,90,0.00,,,0.00,weatherlink.com 1.10,2013-05-15 04:46:00,
2013-05-14 22:01:00,38.9,36.0,30.08,North,352,0.0,1.0,90,0.00,,,0.00,weatherlink.com 1.10,2013-05-15 05:01:00,
2013-05-14 22:16:00,37.1,35.0,30.09,WSW,238,0.0,0.0,91,0.00,,,0.00,weatherlink.com 1.10,2013-05-15 05:16:00,
2013-05-14 22:31:00,37.0,35.0,30.09,SE,131,0.0,0.0,93,0.00,,,0.00,weatherlink.com 1.10,2013-05-15 05:31:00,
2013-05-14 22:46:00,37.4,36.0,30.09,SE,131,0.0,0.0,94,0.00,,,0.00,weatherlink.com 1.10,2013-05-15 05:46:00,
2013-05-14 23:01:00,36.4,35.0,30.09,SE,131,0.0,1.0,93,0.00,,,0.00,weatherlink.com 1.10,2013-05-15 06:01:00,
2013-05-14 23:16:00,35.7,34.0,30.09,SW,219,0.0,1.0,95,0.00,,,0.00,weatherlink.com 1.10,2013-05-15 06:16:00,
2013-05-14 23:31:00,35.1,34.0,30.09,SW,217,0.0,0.0,94,0.00,,,0.00,weatherlink.com 1.10,2013-05-15 06:31:00,
2013-05-14 23:46:00,34.2,33.0,30.09,SW,217,0.0,0.0,95,0.00,,,0.00,weatherlink.com 1.10,2013-05-15 06:46:00,